PWSweather.com
Personal Weather Stations
Station Observations
KD0MBL
Pueblo West, Pueblo West, CO 81007

Pueblo WestPueblo West, CO 81007

Lat: 38.380276, Lon: -104.7134279

Elevation: 5220

Station Type: Davis VantageVue

Latest ConditionsUpdated 1:31:18 PM MST Thursday, Nov 27, 2014
Currently Today's Max Today's Min Today's Average
Temperature 68.6°F20.3°C 68.6°F20.3°C 21.9°F-5.6°C 37.0°F2.8°C
Dew Point 13.9°F-10.1°C 29.1°F-1.6°C 13.8°F-10.1°C 21.5°F-5.8°C
Winds 9.0 mph WNW14.5 kmh WNW 20.0 mph W32.2 kmh W - 5.6 mph 9.0 kmh
Wind Gusts 14.0 mph22.5 kmh 30.0 mph48.3 kmh - -
Humidity 12% 89% 12% 65%
Pressure 30.31 in1026.4 mb 30.50 in1032.8 mb 30.31 in1026.4 mb -
Hour Temp Dew Point Humidity Winds Wind Gusts Pressure Precip Precip Rate Daily Precip Total
01:31 PM 68.6°F20.3°C 13.9°F-10.1°C 12% 9.0 mph WNW14.5 kmh WNW 14.0 mph22.5 kmh 30.31 in1026.4 mb 0.00 in0.0 mm 0.00 in/hr0.0 mm/hr 0.00 in0.0 mm
01:21 PM 68.6°F20.3°C 13.9°F-10.1°C 12% 9.0 mph W14.5 kmh W 14.0 mph22.5 kmh 30.32 in1026.8 mb 0.00 in0.0 mm 0.00 in/hr0.0 mm/hr 0.00 in0.0 mm
01:11 PM 68.5°F20.3°C 13.8°F-10.1°C 12% 8.0 mph WNW12.9 kmh WNW 13.0 mph20.9 kmh 30.33 in1027.1 mb 0.00 in0.0 mm 0.00 in/hr0.0 mm/hr 0.00 in0.0 mm
01:01 PM 67.9°F19.9°C 15.2°F-9.3°C 13% 8.0 mph WNW12.9 kmh WNW 12.0 mph19.3 kmh 30.34 in1027.4 mb 0.00 in0.0 mm 0.00 in/hr0.0 mm/hr 0.00 in0.0 mm
12:51 PM 67.6°F19.8°C 16.6°F-8.6°C 14% 9.0 mph WNW14.5 kmh WNW 16.0 mph25.7 kmh 30.35 in1027.8 mb 0.00 in0.0 mm 0.00 in/hr0.0 mm/hr 0.00 in0.0 mm
12:41 PM 66.9°F19.4°C 16.1°F-8.8°C 14% 11.0 mph W17.7 kmh W 17.0 mph27.4 kmh 30.36 in1028.1 mb 0.00 in0.0 mm 0.00 in/hr0.0 mm/hr 0.00 in0.0 mm
12:31 PM 66.6°F19.2°C 15.9°F-8.9°C 14% 13.0 mph W20.9 kmh W 18.0 mph29.0 kmh 30.36 in1028.1 mb 0.00 in0.0 mm 0.00 in/hr0.0 mm/hr 0.00 in0.0 mm
12:21 PM 66.4°F19.1°C 15.7°F-9.1°C 14% 14.0 mph W22.5 kmh W 23.0 mph37.0 kmh 30.37 in1028.4 mb 0.00 in0.0 mm 0.00 in/hr0.0 mm/hr 0.00 in0.0 mm
12:11 PM 65.8°F18.8°C 15.2°F-9.3°C 14% 17.0 mph W27.4 kmh W 23.0 mph37.0 kmh 30.38 in1028.8 mb 0.00 in0.0 mm 0.00 in/hr0.0 mm/hr 0.00 in0.0 mm
12:01 PM 65.6°F18.7°C 15.1°F-9.4°C 14% 18.0 mph W29.0 kmh W 25.0 mph40.2 kmh 30.39 in1029.1 mb 0.00 in0.0 mm 0.00 in/hr0.0 mm/hr 0.00 in0.0 mm
11:51 AM 64.8°F18.2°C 16.0°F-8.9°C 15% 19.0 mph W30.6 kmh W 30.0 mph48.3 kmh 30.39 in1029.1 mb 0.00 in0.0 mm 0.00 in/hr0.0 mm/hr 0.00 in0.0 mm
11:41 AM 64.1°F17.8°C 15.4°F-9.2°C 15% 20.0 mph W32.2 kmh W 27.0 mph43.5 kmh 30.39 in1029.1 mb 0.00 in0.0 mm 0.00 in/hr0.0 mm/hr 0.00 in0.0 mm
11:31 AM 63.3°F17.4°C 16.3°F-8.7°C 16% 18.0 mph W29.0 kmh W 28.0 mph45.1 kmh 30.40 in1029.5 mb 0.00 in0.0 mm 0.00 in/hr0.0 mm/hr 0.00 in0.0 mm
11:21 AM 61.7°F16.5°C 17.7°F-7.9°C 18% 15.0 mph WNW24.1 kmh WNW 25.0 mph40.2 kmh 30.41 in1029.8 mb 0.00 in0.0 mm 0.00 in/hr0.0 mm/hr 0.00 in0.0 mm
11:11 AM 59.2°F15.1°C 20.3°F-6.5°C 22% 12.0 mph WNW19.3 kmh WNW 18.0 mph29.0 kmh 30.42 in1030.1 mb 0.00 in0.0 mm 0.00 in/hr0.0 mm/hr 0.00 in0.0 mm
11:01 AM 57.7°F14.3°C 20.1°F-6.6°C 23% 12.0 mph WNW19.3 kmh WNW 19.0 mph30.6 kmh 30.43 in1030.5 mb 0.00 in0.0 mm 0.00 in/hr0.0 mm/hr 0.00 in0.0 mm
10:51 AM 56.6°F13.7°C 21.1°F-6.1°C 25% 16.0 mph W25.7 kmh W 23.0 mph37.0 kmh 30.44 in1030.8 mb 0.00 in0.0 mm 0.00 in/hr0.0 mm/hr 0.00 in0.0 mm
10:41 AM 55.6°F13.1°C 21.2°F-6.0°C 26% 16.0 mph W25.7 kmh W 21.0 mph33.8 kmh 30.44 in1030.8 mb 0.00 in0.0 mm 0.00 in/hr0.0 mm/hr 0.00 in0.0 mm
10:31 AM 54.5°F12.5°C 22.0°F-5.6°C 28% 13.0 mph W20.9 kmh W 20.0 mph32.2 kmh 30.45 in1031.2 mb 0.00 in0.0 mm 0.00 in/hr0.0 mm/hr 0.00 in0.0 mm
10:21 AM 54.0°F12.2°C 22.4°F-5.3°C 29% 10.0 mph W16.1 kmh W 14.0 mph22.5 kmh 30.46 in1031.5 mb 0.00 in0.0 mm 0.00 in/hr0.0 mm/hr 0.00 in0.0 mm
10:11 AM 53.3°F11.8°C 22.6°F-5.2°C 30% 8.0 mph WNW12.9 kmh WNW 13.0 mph20.9 kmh 30.46 in1031.5 mb 0.00 in0.0 mm 0.00 in/hr0.0 mm/hr 0.00 in0.0 mm
10:01 AM 49.3°F9.6°C 24.7°F-4.1°C 38% 8.0 mph W12.9 kmh W 16.0 mph25.7 kmh 30.46 in1031.5 mb 0.00 in0.0 mm 0.00 in/hr0.0 mm/hr 0.00 in0.0 mm
09:51 AM 37.0°F2.8°C 28.8°F-1.8°C 72% Calm Calm 2.0 mph3.2 kmh 30.46 in1031.5 mb 0.00 in0.0 mm 0.00 in/hr0.0 mm/hr 0.00 in0.0 mm
09:41 AM 35.8°F2.1°C 28.0°F-2.2°C 73% 4.0 mph ENE6.4 kmh ENE 8.0 mph12.9 kmh 30.46 in1031.5 mb 0.00 in0.0 mm 0.00 in/hr0.0 mm/hr 0.00 in0.0 mm
09:31 AM 35.0°F1.7°C 29.1°F-1.6°C 79% 1.0 mph SE1.6 kmh SE 3.0 mph4.8 kmh 30.46 in1031.5 mb 0.00 in0.0 mm 0.00 in/hr0.0 mm/hr 0.00 in0.0 mm
09:21 AM 33.4°F0.8°C 27.6°F-2.4°C 79% 1.0 mph E1.6 kmh E 5.0 mph8.0 kmh 30.46 in1031.5 mb 0.00 in0.0 mm 0.00 in/hr0.0 mm/hr 0.00 in0.0 mm
09:11 AM 33.4°F0.8°C 27.3°F-2.6°C 78% 3.0 mph ENE4.8 kmh ENE 7.0 mph11.3 kmh 30.47 in1031.8 mb 0.00 in0.0 mm 0.00 in/hr0.0 mm/hr 0.00 in0.0 mm
09:01 AM 33.4°F0.8°C 27.6°F-2.4°C 79% Calm Calm 1.0 mph1.6 kmh 30.48 in1032.2 mb 0.00 in0.0 mm 0.00 in/hr0.0 mm/hr 0.00 in0.0 mm
08:51 AM 32.8°F0.4°C 27.0°F-2.8°C 79% 2.0 mph NE3.2 kmh NE 4.0 mph6.4 kmh 30.48 in1032.2 mb 0.00 in0.0 mm 0.00 in/hr0.0 mm/hr 0.00 in0.0 mm
08:41 AM 32.3°F0.2°C 26.5°F-3.1°C 79% 3.0 mph NNE4.8 kmh NNE 6.0 mph9.7 kmh 30.48 in1032.2 mb 0.00 in0.0 mm 0.00 in/hr0.0 mm/hr 0.00 in0.0 mm
08:31 AM 31.9°F-0.1°C 26.1°F-3.3°C 79% 4.0 mph NE6.4 kmh NE 5.0 mph8.0 kmh 30.48 in1032.2 mb 0.00 in0.0 mm 0.00 in/hr0.0 mm/hr 0.00 in0.0 mm
08:21 AM 31.9°F-0.1°C 26.4°F-3.1°C 80% 3.0 mph NE4.8 kmh NE 5.0 mph8.0 kmh 30.49 in1032.5 mb 0.00 in0.0 mm 0.00 in/hr0.0 mm/hr 0.00 in0.0 mm
08:11 AM 31.3°F-0.4°C 26.1°F-3.3°C 81% 3.0 mph NE4.8 kmh NE 7.0 mph11.3 kmh 30.48 in1032.2 mb 0.00 in0.0 mm 0.00 in/hr0.0 mm/hr 0.00 in0.0 mm
08:01 AM 31.3°F-0.4°C 26.1°F-3.3°C 81% 2.0 mph NW3.2 kmh NW 3.0 mph4.8 kmh 30.48 in1032.2 mb 0.00 in0.0 mm 0.00 in/hr0.0 mm/hr 0.00 in0.0 mm
07:51 AM 30.4°F-0.9°C 25.9°F-3.4°C 83% 1.0 mph NNE1.6 kmh NNE 2.0 mph3.2 kmh 30.48 in1032.2 mb 0.00 in0.0 mm 0.00 in/hr0.0 mm/hr 0.00 in0.0 mm
07:41 AM 29.4°F-1.4°C 25.4°F-3.7°C 85% 2.0 mph NNW3.2 kmh NNW 4.0 mph6.4 kmh 30.48 in1032.2 mb 0.00 in0.0 mm 0.00 in/hr0.0 mm/hr 0.00 in0.0 mm
07:31 AM 27.9°F-2.3°C 24.3°F-4.3°C 86% 5.0 mph N8.0 kmh N 6.0 mph9.7 kmh 30.48 in1032.2 mb 0.00 in0.0 mm 0.00 in/hr0.0 mm/hr 0.00 in0.0 mm
07:21 AM 26.4°F-3.1°C 22.5°F-5.3°C 85% 3.0 mph NE4.8 kmh NE 5.0 mph8.0 kmh 30.48 in1032.2 mb 0.00 in0.0 mm 0.00 in/hr0.0 mm/hr 0.00 in0.0 mm
07:11 AM 27.0°F-2.8°C 23.6°F-4.7°C 87% 2.0 mph N3.2 kmh N 3.0 mph4.8 kmh 30.48 in1032.2 mb 0.00 in0.0 mm 0.00 in/hr0.0 mm/hr 0.00 in0.0 mm
07:01 AM 26.2°F-3.2°C 22.3°F-5.4°C 85% 2.0 mph NNE3.2 kmh NNE 3.0 mph4.8 kmh 30.48 in1032.2 mb 0.00 in0.0 mm 0.00 in/hr0.0 mm/hr 0.00 in0.0 mm
06:51 AM 26.3°F-3.2°C 23.2°F-4.9°C 88% 2.0 mph N3.2 kmh N 3.0 mph4.8 kmh 30.48 in1032.2 mb 0.00 in0.0 mm 0.00 in/hr0.0 mm/hr 0.00 in0.0 mm
06:41 AM 25.3°F-3.7°C 22.2°F-5.4°C 88% 4.0 mph NNE6.4 kmh NNE 5.0 mph8.0 kmh 30.48 in1032.2 mb 0.00 in0.0 mm 0.00 in/hr0.0 mm/hr 0.00 in0.0 mm
06:31 AM 24.8°F-4.0°C 22.0°F-5.6°C 89% 3.0 mph NNE4.8 kmh NNE 4.0 mph6.4 kmh 30.48 in1032.2 mb 0.00 in0.0 mm 0.00 in/hr0.0 mm/hr 0.00 in0.0 mm
06:21 AM 23.9°F-4.5°C 21.1°F-6.1°C 89% 2.0 mph N3.2 kmh N 3.0 mph4.8 kmh 30.48 in1032.2 mb 0.00 in0.0 mm 0.00 in/hr0.0 mm/hr 0.00 in0.0 mm
06:11 AM 23.3°F-4.8°C 20.3°F-6.5°C 88% 3.0 mph NE4.8 kmh NE 5.0 mph8.0 kmh 30.48 in1032.2 mb 0.00 in0.0 mm 0.00 in/hr0.0 mm/hr 0.00 in0.0 mm
06:01 AM 23.7°F-4.6°C 20.7°F-6.3°C 88% 3.0 mph NNE4.8 kmh NNE 6.0 mph9.7 kmh 30.48 in1032.2 mb 0.00 in0.0 mm 0.00 in/hr0.0 mm/hr 0.00 in0.0 mm
05:51 AM 23.7°F-4.6°C 20.1°F-6.6°C 86% 1.0 mph NE1.6 kmh NE 6.0 mph9.7 kmh 30.48 in1032.2 mb 0.00 in0.0 mm 0.00 in/hr0.0 mm/hr 0.00 in0.0 mm
05:41 AM 25.4°F-3.7°C 21.2°F-6.0°C 84% 2.0 mph NW3.2 kmh NW 6.0 mph9.7 kmh 30.48 in1032.2 mb 0.00 in0.0 mm 0.00 in/hr0.0 mm/hr 0.00 in0.0 mm
05:31 AM 25.5°F-3.6°C 21.9°F-5.6°C 86% 1.0 mph E1.6 kmh E 6.0 mph9.7 kmh 30.48 in1032.2 mb 0.00 in0.0 mm 0.00 in/hr0.0 mm/hr 0.00 in0.0 mm
05:21 AM 26.0°F-3.3°C 22.7°F-5.2°C 87% 2.0 mph W3.2 kmh W 4.0 mph6.4 kmh 30.49 in1032.5 mb 0.00 in0.0 mm 0.00 in/hr0.0 mm/hr 0.00 in0.0 mm
05:01 AM 25.9°F-3.4°C 22.6°F-5.2°C 87% 2.0 mph WNW3.2 kmh WNW 5.0 mph8.0 kmh 30.49 in1032.5 mb 0.00 in0.0 mm 0.00 in/hr0.0 mm/hr 0.00 in0.0 mm
04:51 AM 25.5°F-3.6°C 22.4°F-5.3°C 88% 5.0 mph WSW8.0 kmh WSW 6.0 mph9.7 kmh 30.49 in1032.5 mb 0.00 in0.0 mm 0.00 in/hr0.0 mm/hr 0.00 in0.0 mm
04:41 AM 24.2°F-4.3°C 20.9°F-6.2°C 87% 3.0 mph WSW4.8 kmh WSW 5.0 mph8.0 kmh 30.48 in1032.2 mb 0.00 in0.0 mm 0.00 in/hr0.0 mm/hr 0.00 in0.0 mm
04:31 AM 24.4°F-4.2°C 20.8°F-6.2°C 86% 1.0 mph E1.6 kmh E 5.0 mph8.0 kmh 30.49 in1032.5 mb 0.00 in0.0 mm 0.00 in/hr0.0 mm/hr 0.00 in0.0 mm
04:21 AM 24.8°F-4.0°C 21.5°F-5.8°C 87% 1.0 mph NW1.6 kmh NW 3.0 mph4.8 kmh 30.50 in1032.8 mb 0.00 in0.0 mm 0.00 in/hr0.0 mm/hr 0.00 in0.0 mm
04:11 AM 24.2°F-4.3°C 21.2°F-6.0°C 88% 2.0 mph W3.2 kmh W 3.0 mph4.8 kmh 30.49 in1032.5 mb 0.00 in0.0 mm 0.00 in/hr0.0 mm/hr 0.00 in0.0 mm
04:01 AM 23.5°F-4.7°C 19.9°F-6.7°C 86% 2.0 mph WSW3.2 kmh WSW 5.0 mph8.0 kmh 30.49 in1032.5 mb 0.00 in0.0 mm 0.00 in/hr0.0 mm/hr 0.00 in0.0 mm
03:51 AM 23.4°F-4.8°C 19.6°F-6.9°C 85% 2.0 mph SW3.2 kmh SW 7.0 mph11.3 kmh 30.50 in1032.8 mb 0.00 in0.0 mm 0.00 in/hr0.0 mm/hr 0.00 in0.0 mm
03:41 AM 24.6°F-4.1°C 21.0°F-6.1°C 86% 5.0 mph WSW8.0 kmh WSW 6.0 mph9.7 kmh 30.50 in1032.8 mb 0.00 in0.0 mm 0.00 in/hr0.0 mm/hr 0.00 in0.0 mm
03:31 AM 23.9°F-4.5°C 20.0°F-6.7°C 85% 4.0 mph W6.4 kmh W 4.0 mph6.4 kmh 30.50 in1032.8 mb 0.00 in0.0 mm 0.00 in/hr0.0 mm/hr 0.00 in0.0 mm
03:21 AM 23.7°F-4.6°C 20.4°F-6.4°C 87% 4.0 mph W6.4 kmh W 5.0 mph8.0 kmh 30.50 in1032.8 mb 0.00 in0.0 mm 0.00 in/hr0.0 mm/hr 0.00 in0.0 mm
03:11 AM 21.9°F-5.6°C 18.4°F-7.6°C 86% 4.0 mph W6.4 kmh W 6.0 mph9.7 kmh 30.50 in1032.8 mb 0.00 in0.0 mm 0.00 in/hr0.0 mm/hr 0.00 in0.0 mm
03:01 AM 23.4°F-4.8°C 18.7°F-7.4°C 82% 2.0 mph WSW3.2 kmh WSW 3.0 mph4.8 kmh 30.50 in1032.8 mb 0.00 in0.0 mm 0.00 in/hr0.0 mm/hr 0.00 in0.0 mm
02:51 AM 23.1°F-4.9°C 19.5°F-6.9°C 86% 1.0 mph W1.6 kmh W 3.0 mph4.8 kmh 30.50 in1032.8 mb 0.00 in0.0 mm 0.00 in/hr0.0 mm/hr 0.00 in0.0 mm
02:41 AM 23.2°F-4.9°C 18.2°F-7.7°C 81% 2.0 mph WSW3.2 kmh WSW 4.0 mph6.4 kmh 30.50 in1032.8 mb 0.00 in0.0 mm 0.00 in/hr0.0 mm/hr 0.00 in0.0 mm
02:31 AM 24.4°F-4.2°C 19.4°F-7.0°C 81% 2.0 mph SW3.2 kmh SW 6.0 mph9.7 kmh 30.50 in1032.8 mb 0.00 in0.0 mm 0.00 in/hr0.0 mm/hr 0.00 in0.0 mm
02:21 AM 28.6°F-1.9°C 22.0°F-5.6°C 76% 4.0 mph NNE6.4 kmh NNE 5.0 mph8.0 kmh 30.50 in1032.8 mb 0.00 in0.0 mm 0.00 in/hr0.0 mm/hr 0.00 in0.0 mm
02:11 AM 29.8°F-1.2°C 23.5°F-4.7°C 77% 5.0 mph NNW8.0 kmh NNW 7.0 mph11.3 kmh 30.50 in1032.8 mb 0.00 in0.0 mm 0.00 in/hr0.0 mm/hr 0.00 in0.0 mm
02:01 AM 29.1°F-1.6°C 22.8°F-5.1°C 77% 4.0 mph N6.4 kmh N 6.0 mph9.7 kmh 30.50 in1032.8 mb 0.00 in0.0 mm 0.00 in/hr0.0 mm/hr 0.00 in0.0 mm
01:51 AM 28.9°F-1.7°C 22.6°F-5.2°C 77% 3.0 mph NNW4.8 kmh NNW 4.0 mph6.4 kmh 30.50 in1032.8 mb 0.00 in0.0 mm 0.00 in/hr0.0 mm/hr 0.00 in0.0 mm
01:41 AM 29.2°F-1.6°C 22.9°F-5.1°C 77% 4.0 mph NNW6.4 kmh NNW 5.0 mph8.0 kmh 30.50 in1032.8 mb 0.00 in0.0 mm 0.00 in/hr0.0 mm/hr 0.00 in0.0 mm
01:31 AM 29.2°F-1.6°C 22.6°F-5.2°C 76% 5.0 mph N8.0 kmh N 6.0 mph9.7 kmh 30.50 in1032.8 mb 0.00 in0.0 mm 0.00 in/hr0.0 mm/hr 0.00 in0.0 mm
01:21 AM 28.8°F-1.8°C 22.8°F-5.1°C 78% 5.0 mph N8.0 kmh N 7.0 mph11.3 kmh 30.50 in1032.8 mb 0.00 in0.0 mm 0.00 in/hr0.0 mm/hr 0.00 in0.0 mm
01:11 AM 28.5°F-1.9°C 22.5°F-5.3°C 78% 5.0 mph N8.0 kmh N 7.0 mph11.3 kmh 30.50 in1032.8 mb 0.00 in0.0 mm 0.00 in/hr0.0 mm/hr 0.00 in0.0 mm
01:01 AM 28.3°F-2.1°C 22.3°F-5.4°C 78% 5.0 mph N8.0 kmh N 6.0 mph9.7 kmh 30.49 in1032.5 mb 0.00 in0.0 mm 0.00 in/hr0.0 mm/hr 0.00 in0.0 mm
12:51 AM 28.4°F-2.0°C 22.4°F-5.3°C 78% 5.0 mph N8.0 kmh N 6.0 mph9.7 kmh 30.50 in1032.8 mb 0.00 in0.0 mm 0.00 in/hr0.0 mm/hr 0.00 in0.0 mm
12:41 AM 28.9°F-1.7°C 22.6°F-5.2°C 77% 5.0 mph N8.0 kmh N 6.0 mph9.7 kmh 30.50 in1032.8 mb 0.00 in0.0 mm 0.00 in/hr0.0 mm/hr 0.00 in0.0 mm
12:31 AM 29.1°F-1.6°C 23.1°F-4.9°C 78% 4.0 mph N6.4 kmh N 6.0 mph9.7 kmh 30.50 in1032.8 mb 0.00 in0.0 mm 0.00 in/hr0.0 mm/hr 0.00 in0.0 mm
12:21 AM 28.3°F-2.1°C 22.6°F-5.2°C 79% 3.0 mph N4.8 kmh N 5.0 mph8.0 kmh 30.50 in1032.8 mb 0.00 in0.0 mm 0.00 in/hr0.0 mm/hr 0.00 in0.0 mm
12:11 AM 28.2°F-2.1°C 22.5°F-5.3°C 79% 4.0 mph N6.4 kmh N 6.0 mph9.7 kmh 30.49 in1032.5 mb 0.00 in0.0 mm 0.00 in/hr0.0 mm/hr 0.00 in0.0 mm
12:01 AM 27.8°F-2.3°C 22.7°F-5.2°C 81% 4.0 mph N6.4 kmh N 4.0 mph6.4 kmh 30.50 in1032.8 mb 0.00 in0.0 mm 0.00 in/hr0.0 mm/hr 0.00 in0.0 mm